createdAt,value
2018-04-13T00:01:44.968Z,10.80
2018-04-13T00:04:12.476Z,10.80
2018-04-13T00:06:39.934Z,10.80
2018-04-13T00:09:07.443Z,10.80
2018-04-13T00:11:35.844Z,10.80
2018-04-13T00:14:03.319Z,10.80
2018-04-13T00:16:30.800Z,10.90
2018-04-13T00:18:58.256Z,10.90
2018-04-13T00:21:26.665Z,10.90
2018-04-13T00:23:54.913Z,10.90
2018-04-13T00:26:22.401Z,10.90
2018-04-13T00:28:49.858Z,10.90
2018-04-13T00:31:17.349Z,10.90
2018-04-13T00:33:44.861Z,10.90
2018-04-13T00:36:12.303Z,10.80
2018-04-13T00:38:40.816Z,10.80
2018-04-13T00:41:09.150Z,10.80
2018-04-13T00:43:44.284Z,10.80
2018-04-13T00:46:11.728Z,10.80
2018-04-13T00:48:39.708Z,10.80
2018-04-13T00:51:07.691Z,10.80
2018-04-13T00:53:35.154Z,10.80
2018-04-13T00:56:02.630Z,10.80
2018-04-13T00:58:41.014Z,10.70
2018-04-13T01:01:08.463Z,10.70
2018-04-13T01:03:35.917Z,10.80
2018-04-13T01:06:03.411Z,10.70
2018-04-13T01:08:30.867Z,10.80
2018-04-13T01:11:00.012Z,10.80
2018-04-13T01:13:27.484Z,10.80
2018-04-13T01:15:54.960Z,10.80
2018-04-13T01:18:22.455Z,10.70
2018-04-13T01:20:49.909Z,10.60
2018-04-13T01:23:17.365Z,10.50
2018-04-13T01:25:44.850Z,10.50
2018-04-13T01:28:16.830Z,10.40
2018-04-13T01:30:44.293Z,10.50
2018-04-13T01:33:11.774Z,10.50
2018-04-13T01:35:39.222Z,10.50
2018-04-13T01:38:06.674Z,10.50
2018-04-13T01:40:34.171Z,10.40
2018-04-13T01:43:03.525Z,10.30
2018-04-13T01:45:33.428Z,10.20
2018-04-13T01:48:00.930Z,10.20
2018-04-13T01:50:29.147Z,10.10
2018-04-13T01:52:58.324Z,10.10
2018-04-13T01:55:25.920Z,10.10
2018-04-13T01:57:53.434Z,10.00
2018-04-13T02:00:20.877Z,10.00
2018-04-13T02:02:48.310Z,10.00
2018-04-13T02:05:17.472Z,10.00
2018-04-13T02:07:44.936Z,9.90
2018-04-13T02:10:12.415Z,9.90
2018-04-13T02:12:39.887Z,9.90
2018-04-13T02:15:07.364Z,9.80
2018-04-13T02:17:34.839Z,9.90
2018-04-13T02:20:02.309Z,9.90
2018-04-13T02:22:31.318Z,9.90
2018-04-13T02:25:00.035Z,9.90
2018-04-13T02:27:27.696Z,9.90
2018-04-13T02:29:55.401Z,9.90
2018-04-13T02:32:22.861Z,9.90
2018-04-13T02:34:51.082Z,9.90
2018-04-13T02:37:20.250Z,9.90
2018-04-13T02:39:47.700Z,9.90
2018-04-13T02:42:15.207Z,9.90
2018-04-13T02:44:43.471Z,9.90
2018-04-13T02:47:10.916Z,9.80
2018-04-13T02:49:38.697Z,9.90
2018-04-13T02:52:06.135Z,9.90
2018-04-13T02:54:34.021Z,10.00
2018-04-13T02:57:01.519Z,10.00
2018-04-13T02:59:29.737Z,10.10
2018-04-13T03:01:57.192Z,10.10
2018-04-13T03:04:24.660Z,10.20
2018-04-13T03:06:53.042Z,10.20
2018-04-13T03:09:21.284Z,10.20
2018-04-13T03:11:48.768Z,10.20
2018-04-13T03:14:16.232Z,10.30
2018-04-13T03:16:43.724Z,10.30
2018-04-13T03:19:12.020Z,10.40
2018-04-13T03:21:39.477Z,10.40
2018-04-13T03:24:06.956Z,10.50
2018-04-13T03:26:34.423Z,10.50
2018-04-13T03:29:01.987Z,10.50
2018-04-13T03:31:29.466Z,10.60
2018-04-13T03:33:57.678Z,10.50
2018-04-13T03:36:25.787Z,10.50
2018-04-13T03:38:53.228Z,10.60
2018-04-13T03:41:20.925Z,10.80
2018-04-13T03:43:48.423Z,10.80
2018-04-13T03:46:15.906Z,10.90
2018-04-13T03:48:43.404Z,10.90
2018-04-13T03:51:11.646Z,10.90
2018-04-13T03:53:40.672Z,10.90
2018-04-13T03:56:08.417Z,10.90
2018-04-13T03:58:36.181Z,11.00
2018-04-13T04:01:07.712Z,11.10
2018-04-13T04:03:35.203Z,11.10
2018-04-13T04:06:02.765Z,11.10
2018-04-13T04:08:30.263Z,11.00
2018-04-13T04:10:57.758Z,10.90
2018-04-13T04:13:25.251Z,11.00
2018-04-13T04:15:58.339Z,10.80
2018-04-13T04:18:33.710Z,10.90
2018-04-13T04:21:12.895Z,10.90
2018-04-13T04:23:52.234Z,10.90
2018-04-13T04:26:32.354Z,11.10
2018-04-13T04:29:00.889Z,11.10
2018-04-13T04:31:28.346Z,11.20
2018-04-13T04:33:55.824Z,11.20
2018-04-13T04:36:23.282Z,11.20
2018-04-13T04:38:50.766Z,11.10
2018-04-13T04:41:18.249Z,10.90
2018-04-13T04:43:45.731Z,10.90
2018-04-13T04:46:13.180Z,10.80
2018-04-13T04:48:45.352Z,10.70
2018-04-13T04:51:13.124Z,10.70
2018-04-13T04:53:40.741Z,10.70
2018-04-13T04:56:08.228Z,10.80
2018-04-13T04:58:35.688Z,10.90
2018-04-13T05:01:03.988Z,11.00
2018-04-13T05:03:34.765Z,11.10
2018-04-13T05:06:02.563Z,11.10
2018-04-13T05:08:30.025Z,11.00
2018-04-13T05:10:57.511Z,11.00
2018-04-13T05:13:24.988Z,11.00
2018-04-13T05:15:54.172Z,11.20
2018-04-13T05:18:25.174Z,11.20
2018-04-13T05:20:52.657Z,11.40
2018-04-13T05:23:20.116Z,11.50
2018-04-13T05:25:49.374Z,11.70
2018-04-13T05:28:16.901Z,11.70
2018-04-13T05:30:44.406Z,11.70
2018-04-13T05:33:17.093Z,11.80
2018-04-13T05:35:44.579Z,11.90
2018-04-13T05:38:12.046Z,12.10
2018-04-13T05:40:39.517Z,12.10
2018-04-13T05:43:07.905Z,12.20
2018-04-13T05:45:35.384Z,12.20
2018-04-13T05:48:02.897Z,12.30
2018-04-13T05:50:30.356Z,12.40
2018-04-13T05:52:57.867Z,12.60
2018-04-13T05:55:26.168Z,12.80
2018-04-13T05:57:53.660Z,12.80
2018-04-13T06:00:21.891Z,12.80
2018-04-13T06:02:54.141Z,12.90
2018-04-13T06:05:22.539Z,12.90
2018-04-13T06:07:50.040Z,13.00
2018-04-13T06:10:17.538Z,13.20
2018-04-13T06:12:45.000Z,13.30
2018-04-13T06:15:13.249Z,13.40
2018-04-13T06:17:41.345Z,13.40
2018-04-13T06:20:08.801Z,13.40
2018-04-13T06:22:36.299Z,13.40
2018-04-13T06:25:03.788Z,13.40
2018-04-13T06:27:31.286Z,13.40
2018-04-13T06:29:59.585Z,13.50
2018-04-13T06:32:27.154Z,13.50
2018-04-13T06:34:55.397Z,13.50
2018-04-13T06:37:22.867Z,13.40
2018-04-13T06:39:51.723Z,13.20
2018-04-13T06:42:20.244Z,13.20
2018-04-13T06:44:48.045Z,13.10
2018-04-13T06:47:15.521Z,13.00
2018-04-13T06:49:43.086Z,13.00
2018-04-13T06:52:10.541Z,13.00
2018-04-13T06:54:38.923Z,13.00
2018-04-13T06:57:06.409Z,12.90
2018-04-13T06:59:33.856Z,13.00
2018-04-13T07:02:01.352Z,13.10
2018-04-13T07:04:35.771Z,13.10
2018-04-13T07:07:03.296Z,13.00
2018-04-13T07:09:30.759Z,13.00
2018-04-13T07:11:58.851Z,13.10
2018-04-13T07:14:26.291Z,13.00
2018-04-13T07:16:53.803Z,13.00
2018-04-13T07:19:21.319Z,13.00
2018-04-13T07:21:48.928Z,13.00
2018-04-13T07:24:16.405Z,13.10
2018-04-13T07:26:43.890Z,13.10
2018-04-13T07:29:12.339Z,13.00
2018-04-13T07:31:39.904Z,13.00
2018-04-13T07:34:11.447Z,12.90
2018-04-13T07:36:38.994Z,12.90
2018-04-13T07:39:07.370Z,12.90
2018-04-13T07:41:34.843Z,13.00
2018-04-13T07:44:02.429Z,13.00
2018-04-13T07:46:30.676Z,12.90
2018-04-13T07:48:58.143Z,12.90
2018-04-13T07:51:25.604Z,12.90
2018-04-13T07:53:53.830Z,12.80
2018-04-13T07:56:21.393Z,12.90
2018-04-13T07:58:48.864Z,12.80
2018-04-13T08:01:16.339Z,12.80
2018-04-13T08:03:43.892Z,12.80
2018-04-13T08:06:11.362Z,12.80
2018-04-13T08:08:38.865Z,12.90
2018-04-13T08:11:06.487Z,12.80
2018-04-13T08:13:35.639Z,12.80
2018-04-13T08:16:03.127Z,12.80
2018-04-13T08:18:30.607Z,12.80
2018-04-13T08:20:58.835Z,12.80
2018-04-13T08:23:26.349Z,12.80
2018-04-13T08:25:54.240Z,12.80
2018-04-13T08:28:21.823Z,12.70
2018-04-13T08:30:49.314Z,12.80
2018-04-13T08:33:16.813Z,12.90
2018-04-13T08:35:48.122Z,12.80
2018-04-13T08:38:15.575Z,12.90
2018-04-13T08:40:43.738Z,12.90
2018-04-13T08:43:11.229Z,12.90
2018-04-13T08:45:38.681Z,12.80
2018-04-13T08:48:06.141Z,12.80
2018-04-13T08:50:36.876Z,12.70
2018-04-13T08:53:04.349Z,12.70
2018-04-13T08:55:31.827Z,12.70
2018-04-13T08:57:59.293Z,12.80
2018-04-13T09:00:26.760Z,12.80
2018-04-13T09:02:54.241Z,12.70
2018-04-13T09:05:23.110Z,12.80
2018-04-13T09:07:50.594Z,12.80
2018-04-13T09:10:18.053Z,12.90
2018-04-13T09:12:45.818Z,12.90
2018-04-13T09:15:14.064Z,13.10
2018-04-13T09:17:41.520Z,13.10
2018-04-13T09:20:09.032Z,13.10
2018-04-13T09:22:39.751Z,13.00
2018-04-13T09:25:08.012Z,12.50
2018-04-13T09:27:36.256Z,12.50
2018-04-13T09:30:03.793Z,12.50
2018-04-13T09:32:31.277Z,12.70
2018-04-13T09:34:58.816Z,13.00
2018-04-13T09:37:26.351Z,13.40
2018-04-13T09:39:53.807Z,13.90
2018-04-13T09:42:21.298Z,14.10
2018-04-13T09:44:48.980Z,14.40
2018-04-13T09:47:16.453Z,14.50
2018-04-13T09:49:44.192Z,14.70
2018-04-13T09:52:11.686Z,14.90
2018-04-13T09:54:39.449Z,14.90
2018-04-13T09:57:06.951Z,15.00
2018-04-13T09:59:34.661Z,15.10
2018-04-13T10:02:02.127Z,15.20
2018-04-13T10:04:36.095Z,15.10
2018-04-13T10:07:07.589Z,15.10
2018-04-13T10:09:35.048Z,15.20
2018-04-13T10:12:02.521Z,15.30
2018-04-13T10:14:30.008Z,15.40
2018-04-13T10:16:57.466Z,15.50
2018-04-13T10:19:24.982Z,15.60
2018-04-13T10:21:52.594Z,15.70
2018-04-13T10:24:23.897Z,15.90
2018-04-13T10:26:51.377Z,15.90
2018-04-13T10:29:18.814Z,16.10
2018-04-13T10:31:46.290Z,16.30
2018-04-13T10:34:13.825Z,16.40
2018-04-13T10:36:41.320Z,16.50
2018-04-13T10:39:08.778Z,16.70
2018-04-13T10:41:36.246Z,16.90
2018-04-13T10:44:03.747Z,17.00
2018-04-13T10:46:33.395Z,17.20
2018-04-13T10:49:01.842Z,17.10
2018-04-13T10:51:30.069Z,17.20
2018-04-13T10:54:01.632Z,17.20
2018-04-13T10:56:29.205Z,17.00
2018-04-13T10:58:56.761Z,17.00
2018-04-13T11:01:24.276Z,16.90
2018-04-13T11:03:51.733Z,16.90
2018-04-13T11:06:19.189Z,17.10
2018-04-13T11:08:50.275Z,17.20
2018-04-13T11:11:17.736Z,16.90
2018-04-13T11:13:45.245Z,16.80
2018-04-13T11:16:12.742Z,16.90
2018-04-13T11:18:40.884Z,17.00
2018-04-13T11:21:08.373Z,16.80
2018-04-13T11:23:39.741Z,16.80
2018-04-13T11:26:07.195Z,16.70
2018-04-13T11:28:34.701Z,16.70
2018-04-13T11:31:02.151Z,16.70
2018-04-13T11:33:31.359Z,16.40
2018-04-13T11:35:58.840Z,16.40
2018-04-13T11:38:29.290Z,16.40
2018-04-13T11:40:57.531Z,16.10
2018-04-13T11:43:26.259Z,16.20
2018-04-13T11:45:53.760Z,16.20
2018-04-13T11:48:21.204Z,16.50
2018-04-13T11:50:48.936Z,16.80
2018-04-13T11:53:16.425Z,17.00
2018-04-13T11:55:43.952Z,16.80
2018-04-13T11:58:11.426Z,16.70
2018-04-13T12:00:39.703Z,16.70
2018-04-13T12:03:07.160Z,16.80
2018-04-13T12:05:35.395Z,17.00
2018-04-13T12:08:03.036Z,17.00
2018-04-13T12:10:30.481Z,16.90
2018-04-13T12:12:58.511Z,16.80
2018-04-13T12:15:25.984Z,16.70
2018-04-13T12:17:54.228Z,16.60
2018-04-13T12:20:22.506Z,16.50
2018-04-13T12:22:51.488Z,16.30
2018-04-13T12:25:18.946Z,16.30
2018-04-13T12:27:46.523Z,16.20
2018-04-13T12:30:14.015Z,16.20
2018-04-13T12:32:42.397Z,16.40
2018-04-13T12:35:09.840Z,16.50
2018-04-13T12:37:37.441Z,16.50
2018-04-13T12:40:08.640Z,16.40
2018-04-13T12:42:36.091Z,16.30
2018-04-13T12:45:04.505Z,16.10
2018-04-13T12:47:32.275Z,16.10
2018-04-13T12:49:59.992Z,15.90
2018-04-13T12:52:27.457Z,15.70
2018-04-13T12:54:58.367Z,15.50
2018-04-13T12:57:25.994Z,15.30
2018-04-13T12:59:53.444Z,15.30
2018-04-13T13:02:22.302Z,15.00
2018-04-13T13:04:50.056Z,15.00
2018-04-13T13:07:17.556Z,14.90
2018-04-13T13:09:45.812Z,15.00
2018-04-13T13:12:15.189Z,14.90
2018-04-13T13:14:42.668Z,14.80
2018-04-13T13:17:11.644Z,14.00
2018-04-13T13:19:45.932Z,14.00
2018-04-13T13:22:13.422Z,13.70
2018-04-13T13:24:41.307Z,13.70
2018-04-13T13:27:08.791Z,13.80
2018-04-13T13:29:36.248Z,14.00
2018-04-13T13:32:03.716Z,13.70
2018-04-13T13:34:31.193Z,13.50
2018-04-13T13:36:58.734Z,13.40
2018-04-13T13:39:26.261Z,13.40
2018-04-13T13:41:53.765Z,13.10
2018-04-13T13:44:21.322Z,12.90
2018-04-13T13:46:49.348Z,12.80
2018-04-13T13:49:16.804Z,12.80
2018-04-13T13:51:44.300Z,12.80
2018-04-13T13:54:11.757Z,12.80
2018-04-13T13:56:46.197Z,12.80
2018-04-13T13:59:14.625Z,13.00
2018-04-13T14:01:42.304Z,13.20
2018-04-13T14:04:10.073Z,13.20
2018-04-13T14:06:37.561Z,13.30
2018-04-13T14:09:06.026Z,13.30
2018-04-13T14:11:34.156Z,13.40
2018-04-13T14:14:01.596Z,13.30
2018-04-13T14:16:29.073Z,13.20
2018-04-13T14:18:56.560Z,13.40
2018-04-13T14:21:24.024Z,13.50
2018-04-13T14:23:51.529Z,13.60
2018-04-13T14:26:22.470Z,13.70
2018-04-13T14:28:50.221Z,13.90
2018-04-13T14:31:18.090Z,13.90
2018-04-13T14:33:45.563Z,13.50
2018-04-13T14:36:13.824Z,13.20
2018-04-13T14:38:42.228Z,13.20
2018-04-13T14:41:14.474Z,13.10
2018-04-13T14:43:46.637Z,13.00
2018-04-13T14:46:14.225Z,13.00
2018-04-13T14:48:41.724Z,12.90
2018-04-13T14:51:09.205Z,12.80
2018-04-13T14:53:36.701Z,12.60
2018-04-13T14:56:04.179Z,12.30
2018-04-13T14:58:31.710Z,12.10
2018-04-13T15:00:59.270Z,12.00
2018-04-13T15:03:27.204Z,12.00
2018-04-13T15:05:54.714Z,12.00
2018-04-13T15:08:22.206Z,11.90
2018-04-13T15:10:49.672Z,11.90
2018-04-13T15:13:17.172Z,12.00
2018-04-13T15:15:44.792Z,12.00
2018-04-13T15:18:12.751Z,12.20
2018-04-13T15:20:40.880Z,12.10
2018-04-13T15:23:08.357Z,11.90
2018-04-13T15:25:35.932Z,11.90
2018-04-13T15:28:07.584Z,11.90
2018-04-13T15:30:36.266Z,12.00
2018-04-13T15:33:03.770Z,12.00
2018-04-13T15:35:31.274Z,12.00
2018-04-13T15:37:58.785Z,11.80
2018-04-13T15:40:26.458Z,11.60
2018-04-13T15:42:59.411Z,11.50
2018-04-13T15:45:27.215Z,11.50
2018-04-13T15:47:55.309Z,11.40
2018-04-13T15:50:22.788Z,11.50
2018-04-13T15:55:47.816Z,11.40
2018-04-13T15:58:23.047Z,11.40
2018-04-13T16:00:50.942Z,11.40
2018-04-13T16:03:18.511Z,11.40
2018-04-13T16:05:46.047Z,11.20
2018-04-13T16:08:13.891Z,11.10
2018-04-13T16:10:41.475Z,10.90
2018-04-13T16:13:10.771Z,10.80
2018-04-13T16:15:42.779Z,10.70
2018-04-13T16:18:11.203Z,10.80
2018-04-13T16:20:38.779Z,10.80
2018-04-13T16:23:06.353Z,10.80
2018-04-13T16:25:33.905Z,10.80
2018-04-13T16:28:05.433Z,10.70
2018-04-13T16:30:32.954Z,10.70
2018-04-13T16:33:01.314Z,10.70
2018-04-13T16:35:28.844Z,10.60
2018-04-13T16:37:56.411Z,10.70
2018-04-13T16:40:24.179Z,10.70
2018-04-13T16:42:51.720Z,10.60
2018-04-13T16:45:19.278Z,10.60
2018-04-13T16:47:46.795Z,10.50
2018-04-13T16:50:14.436Z,10.40
2018-04-13T16:52:41.983Z,10.30
2018-04-13T16:55:09.524Z,10.20
2018-04-13T17:00:34.718Z,10.10
2018-04-13T17:03:02.850Z,10.10
2018-04-13T17:05:30.399Z,10.10
2018-04-13T17:07:57.934Z,10.10
2018-04-13T17:10:25.507Z,10.00
2018-04-13T17:12:53.054Z,10.00
2018-04-13T17:15:20.633Z,9.90
2018-04-13T17:17:48.154Z,10.00
2018-04-13T17:20:16.408Z,10.00
2018-04-13T17:22:44.011Z,10.00
2018-04-13T17:25:11.548Z,10.10
2018-04-13T17:27:39.108Z,10.10
2018-04-13T17:30:06.675Z,10.10
2018-04-13T17:32:34.437Z,10.10
2018-04-13T17:35:02.842Z,10.10
2018-04-13T17:37:30.395Z,10.00
2018-04-13T17:39:57.956Z,10.00
2018-04-13T17:42:25.466Z,10.00
2018-04-13T17:44:57.811Z,10.00
2018-04-13T17:47:25.406Z,10.00
2018-04-13T17:49:52.934Z,10.00
2018-04-13T17:52:27.274Z,10.00
2018-04-13T17:54:56.474Z,10.00
2018-04-13T17:57:24.011Z,9.90
2018-04-13T17:59:55.218Z,10.00
2018-04-13T18:02:22.832Z,9.90
2018-04-13T18:04:50.784Z,9.90
2018-04-13T18:07:18.314Z,9.90
2018-04-13T18:09:45.838Z,9.80
2018-04-13T18:12:13.371Z,9.80
2018-04-13T18:14:40.884Z,9.80
2018-04-13T18:17:08.406Z,9.90
2018-04-13T18:19:35.943Z,9.90
2018-04-13T18:22:03.474Z,9.90
2018-04-13T18:24:31.003Z,9.80
2018-04-13T18:26:59.973Z,9.90
2018-04-13T18:29:27.602Z,9.90
2018-04-13T18:31:55.166Z,9.90
2018-04-13T18:34:23.614Z,9.90
2018-04-13T18:36:51.139Z,9.90
2018-04-13T18:39:18.694Z,9.90
2018-04-13T18:41:46.995Z,9.90
2018-04-13T18:44:14.554Z,9.90
2018-04-13T18:46:46.285Z,10.00
2018-04-13T18:49:14.616Z,10.10
2018-04-13T18:51:42.168Z,10.10
2018-04-13T18:54:09.720Z,10.10
2018-04-13T18:56:38.964Z,10.10
2018-04-13T18:59:08.205Z,10.10
2018-04-13T19:01:35.708Z,10.00
2018-04-13T19:04:03.285Z,10.00
2018-04-13T19:06:30.811Z,10.00
2018-04-13T19:08:58.356Z,10.00
2018-04-13T19:11:25.875Z,10.00
2018-04-13T19:13:55.012Z,9.90
2018-04-13T19:16:23.388Z,10.00
2018-04-13T19:18:50.907Z,10.00
2018-04-13T19:21:18.453Z,10.00
2018-04-13T19:23:48.745Z,9.90
2018-04-13T19:26:18.024Z,9.90
2018-04-13T19:28:45.510Z,9.90
2018-04-13T19:31:13.088Z,10.00
2018-04-13T19:33:40.657Z,10.00
2018-04-13T19:36:08.956Z,10.00
2018-04-13T19:38:36.615Z,9.90
2018-04-13T19:41:04.145Z,9.90
2018-04-13T19:43:32.238Z,9.90
2018-04-13T19:46:00.770Z,9.90
2018-04-13T19:48:28.322Z,9.80
2018-04-13T19:50:56.271Z,9.80
2018-04-13T19:53:23.813Z,9.80
2018-04-13T19:55:51.358Z,9.70
2018-04-13T19:58:18.863Z,9.70
2018-04-13T20:00:46.436Z,9.70
2018-04-13T20:03:19.601Z,9.60
2018-04-13T20:05:47.138Z,9.70
2018-04-13T20:08:15.248Z,9.70
2018-04-13T20:10:42.791Z,9.70
2018-04-13T20:13:10.389Z,9.60
2018-04-13T20:15:37.924Z,9.60
2018-04-13T20:18:08.965Z,9.60
2018-04-13T20:20:36.479Z,9.60
2018-04-13T20:23:04.936Z,9.60
2018-04-13T20:25:32.460Z,9.60
2018-04-13T20:28:00.015Z,9.60
2018-04-13T20:30:27.633Z,9.60
2018-04-13T20:32:55.243Z,9.70
2018-04-13T20:35:23.706Z,9.70
2018-04-13T20:37:51.236Z,9.70
2018-04-13T20:40:18.774Z,9.80
2018-04-13T20:42:46.363Z,9.70
2018-04-13T20:45:13.876Z,9.70
2018-04-13T20:47:41.390Z,9.60
2018-04-13T20:50:08.926Z,9.60
2018-04-13T20:52:38.166Z,9.70
2018-04-13T20:55:05.703Z,9.60
2018-04-13T20:57:33.223Z,9.60
2018-04-13T21:00:00.792Z,9.60
2018-04-13T21:02:28.319Z,9.50
2018-04-13T21:04:57.519Z,9.50
2018-04-13T21:07:25.093Z,9.40
2018-04-13T21:09:52.632Z,9.40
2018-04-13T21:12:20.195Z,9.50
2018-04-13T21:14:47.703Z,9.50
2018-04-13T21:17:15.214Z,9.40
2018-04-13T21:19:47.305Z,9.30
2018-04-13T21:22:14.806Z,9.30
2018-04-13T21:24:42.372Z,9.30
2018-04-13T21:27:09.967Z,9.30
2018-04-13T21:29:37.487Z,9.30
2018-04-13T21:32:06.733Z,9.30
2018-04-13T21:34:34.245Z,9.30
2018-04-13T21:37:01.826Z,9.30
2018-04-13T21:39:29.368Z,9.30
2018-04-13T21:42:25.108Z,9.30
2018-04-13T21:44:52.907Z,9.30
2018-04-13T21:47:20.460Z,9.30
2018-04-13T21:49:47.959Z,9.30
2018-04-13T21:52:15.483Z,9.30
2018-04-13T21:54:43.854Z,9.30
2018-04-13T21:57:11.571Z,9.30
2018-04-13T21:59:39.079Z,9.20
2018-04-13T22:02:06.588Z,9.20
2018-04-13T22:04:38.103Z,9.20
2018-04-13T22:07:06.415Z,9.20
2018-04-13T22:09:33.943Z,9.10
2018-04-13T22:12:02.243Z,9.20
2018-04-13T22:14:41.703Z,9.20
2018-04-13T22:17:10.140Z,9.20
2018-04-13T22:19:43.054Z,9.20
2018-04-13T22:22:10.732Z,9.20
2018-04-13T22:24:38.351Z,9.20
2018-04-13T22:27:05.911Z,9.20
2018-04-13T22:29:33.463Z,9.20
2018-04-13T22:32:00.999Z,9.20
2018-04-13T22:34:28.534Z,9.20
2018-04-13T22:36:56.090Z,9.20
2018-04-13T22:39:24.271Z,9.20
2018-04-13T22:41:52.109Z,9.20
2018-04-13T22:44:19.631Z,9.20
2018-04-13T22:46:47.242Z,9.20
2018-04-13T22:49:22.114Z,9.20
2018-04-13T22:51:49.802Z,9.20
2018-04-13T22:54:18.122Z,9.20
2018-04-13T22:56:45.632Z,9.20
2018-04-13T22:59:14.857Z,9.10
2018-04-13T23:01:42.388Z,9.10
2018-04-13T23:04:09.919Z,9.00
2018-04-13T23:06:37.424Z,8.90
2018-04-13T23:09:04.967Z,8.80
2018-04-13T23:11:32.468Z,8.70
2018-04-13T23:13:59.998Z,8.60
2018-04-13T23:16:27.928Z,8.50
2018-04-13T23:18:55.436Z,8.50
2018-04-13T23:21:22.974Z,8.40
2018-04-13T23:23:50.485Z,8.40
2018-04-13T23:26:18.062Z,8.30
2018-04-13T23:28:45.583Z,8.30
2018-04-13T23:31:13.112Z,8.30
2018-04-13T23:33:40.668Z,8.30
2018-04-13T23:36:11.920Z,8.40
2018-04-13T23:38:39.530Z,8.40
2018-04-13T23:41:07.067Z,8.40
2018-04-13T23:43:34.581Z,8.30
2018-04-13T23:46:02.915Z,8.20
2018-04-13T23:48:30.430Z,8.20
2018-04-13T23:51:01.822Z,8.20
2018-04-13T23:53:29.378Z,8.10
2018-04-13T23:55:56.905Z,8.00
2018-04-13T23:58:24.417Z,7.90
